Time;durP1;ratioP1;P1;durP2;ratioP2;P2;SDS_P1;SDS_P2;PMS_P1;PMS_P2;Temp;Humidity;BMP_temperature;BMP_pressure;BME280_temperature;BME280_humidity;BME280_pressure;Samples;Min_cycle;Max_cycle;Signal;HPM_P1;HPM_P2
2023/03/11 00:00:47;;;;;;;11.10;5.88;;;;;;;;;;8431424;28;20484;-80
2023/03/11 00:05:02;;;;;;;12.15;5.63;;;;;;;;;;8430976;28;20537;-82
2023/03/11 00:09:05;;;;;;;13.32;6.05;;;;;;;;;;8417085;28;20085;-81
2023/03/11 00:13:10;;;;;;;8.48;4.35;;;;;;;;;;8430170;28;20047;-88
2023/03/11 00:17:13;;;;;;;10.57;5.72;;;;;;;;;;8429112;28;20051;-81
2023/03/11 00:21:19;;;;;;;12.85;6.32;;;;;;;;;;8428973;28;20044;-81
2023/03/11 00:25:24;;;;;;;14.57;5.68;;;;;;;;;;8431115;28;20047;-81
2023/03/11 00:29:26;;;;;;;12.70;5.47;;;;;;;;;;8435184;28;20051;-82
2023/03/11 00:33:29;;;;;;;11.15;6.10;;;;;;;;;;8437615;28;20476;-81
2023/03/11 00:37:34;;;;;;;11.20;5.95;;;;;;;;;;8435033;28;20078;-81
2023/03/11 00:41:37;;;;;;;13.43;6.47;;;;;;;;;;8434908;28;20048;-88
2023/03/11 00:45:41;;;;;;;10.95;6.40;;;;;;;;;;8434573;28;20498;-82
2023/03/11 00:49:43;;;;;;;11.70;5.88;;;;;;;;;;8434483;28;20109;-92
2023/03/11 00:53:48;;;;;;;16.17;7.22;;;;;;;;;;8433489;28;20040;-83
2023/03/11 00:57:54;;;;;;;11.00;6.55;;;;;;;;;;8434889;28;20040;-82
2023/03/11 01:01:57;;;;;;;11.57;5.97;;;;;;;;;;8433550;28;20445;-82
2023/03/11 01:05:59;;;;;;;12.02;6.20;;;;;;;;;;8430175;28;20043;-80
2023/03/11 01:10:04;;;;;;;14.98;6.97;;;;;;;;;;8434259;28;20472;-87
2023/03/11 01:14:07;;;;;;;14.68;6.85;;;;;;;;;;8433985;28;20484;-95
2023/03/11 01:18:10;;;;;;;12.95;7.07;;;;;;;;;;8433833;28;20430;-81
2023/03/11 01:22:13;;;;;;;11.68;6.45;;;;;;;;;;8433303;28;20127;-89
2023/03/11 01:26:17;;;;;;;18.50;6.68;;;;;;;;;;8432917;28;20403;-81
2023/03/11 01:30:22;;;;;;;14.38;7.25;;;;;;;;;;8432634;28;20047;-82
2023/03/11 01:34:25;;;;;;;17.75;7.85;;;;;;;;;;8433225;28;20123;-82
2023/03/11 01:38:28;;;;;;;11.52;6.97;;;;;;;;;;8433176;28;20052;-80
2023/03/11 01:42:32;;;;;;;15.32;7.25;;;;;;;;;;8433084;28;20427;-81
2023/03/11 01:47:00;;;;;;;16.65;7.45;;;;;;;;;;8432969;28;20043;-81
2023/03/11 01:51:05;;;;;;;18.15;7.90;;;;;;;;;;8432490;28;20141;-82
2023/03/11 01:55:09;;;;;;;17.17;7.28;;;;;;;;;;8432352;28;20726;-81
2023/03/11 01:59:19;;;;;;;12.10;6.93;;;;;;;;;;8432111;28;20096;-85
2023/03/11 02:03:27;;;;;;;16.25;6.95;;;;;;;;;;8431556;28;20044;-81
2023/03/11 02:07:30;;;;;;;15.70;7.43;;;;;;;;;;8432150;28;20044;-80
2023/03/11 02:11:33;;;;;;;17.75;7.60;;;;;;;;;;8431787;28;20048;-83
2023/03/11 02:15:37;;;;;;;16.35;7.10;;;;;;;;;;8432676;28;20616;-82
2023/03/11 02:19:56;;;;;;;15.00;7.45;;;;;;;;;;8432103;28;20036;-81
2023/03/11 02:24:08;;;;;;;14.00;6.85;;;;;;;;;;8431977;28;20044;-84
2023/03/11 02:28:15;;;;;;;13.35;7.15;;;;;;;;;;8431467;28;20052;-80
2023/03/11 02:32:19;;;;;;;13.98;7.05;;;;;;;;;;8431641;28;20464;-89
2023/03/11 02:36:33;;;;;;;12.55;5.63;;;;;;;;;;8431369;28;20088;-84
2023/03/11 02:40:47;;;;;;;18.55;7.57;;;;;;;;;;8431429;28;20047;-80
2023/03/11 02:44:57;;;;;;;15.05;7.47;;;;;;;;;;8422497;28;20612;-83
2023/03/11 02:49:00;;;;;;;18.48;9.13;;;;;;;;;;8430834;28;20086;-83
2023/03/11 02:53:04;;;;;;;16.08;7.85;;;;;;;;;;8431325;28;20085;-84
2023/03/11 02:57:07;;;;;;;15.73;6.75;;;;;;;;;;8430346;28;20043;-83
2023/03/11 03:01:11;;;;;;;16.63;8.70;;;;;;;;;;8430411;28;20502;-93
2023/03/11 03:05:14;;;;;;;16.85;8.32;;;;;;;;;;8432213;28;20065;-88
2023/03/11 03:09:17;;;;;;;16.92;8.70;;;;;;;;;;8431808;28;20043;-81
2023/03/11 03:13:21;;;;;;;17.60;9.00;;;;;;;;;;8418567;28;20482;-81
2023/03/11 03:17:26;;;;;;;19.98;8.73;;;;;;;;;;8430374;28;20051;-80
2023/03/11 03:21:28;;;;;;;15.65;8.50;;;;;;;;;;8426904;28;20124;-81
2023/03/11 03:25:32;;;;;;;17.10;8.10;;;;;;;;;;8431112;28;20043;-81
2023/03/11 03:29:34;;;;;;;15.48;7.45;;;;;;;;;;8437920;28;20102;-82
2023/03/11 03:33:39;;;;;;;19.40;10.10;;;;;;;;;;8438053;28;20056;-82
2023/03/11 03:37:42;;;;;;;14.82;8.23;;;;;;;;;;8430826;28;20544;-81
2023/03/11 03:41:46;;;;;;;15.13;7.82;;;;;;;;;;8436314;28;20047;-89
2023/03/11 03:45:56;;;;;;;11.77;5.40;;;;;;;;;;8442654;28;20072;-82
2023/03/11 03:50:00;;;;;;;11.65;6.35;;;;;;;;;;8434244;28;20048;-83
2023/03/11 03:54:04;;;;;;;9.80;5.05;;;;;;;;;;8442796;28;20958;-85
2023/03/11 03:58:06;;;;;;;10.60;4.72;;;;;;;;;;8429240;28;20043;-81
2023/03/11 04:02:09;;;;;;;8.18;4.60;;;;;;;;;;8441315;28;20473;-81
2023/03/11 04:06:17;;;;;;;8.85;4.00;;;;;;;;;;8441274;28;20466;-82
2023/03/11 04:10:21;;;;;;;8.63;4.18;;;;;;;;;;8434898;28;20040;-86
2023/03/11 04:14:24;;;;;;;9.27;5.10;;;;;;;;;;8446023;28;20267;-81
2023/03/11 04:18:27;;;;;;;8.35;4.50;;;;;;;;;;8435769;28;20050;-91
2023/03/11 04:22:31;;;;;;;10.05;5.20;;;;;;;;;;8435570;28;20148;-80
2023/03/11 04:26:35;;;;;;;15.02;6.07;;;;;;;;;;8435247;28;20139;-85
2023/03/11 04:30:37;;;;;;;13.02;7.40;;;;;;;;;;8427265;28;20044;-82
2023/03/11 04:34:40;;;;;;;13.27;7.47;;;;;;;;;;8435490;28;20043;-92
2023/03/11 04:38:45;;;;;;;11.55;5.60;;;;;;;;;;8435985;28;20036;-81
2023/03/11 04:42:48;;;;;;;10.60;5.78;;;;;;;;;;8437132;28;20044;-83
2023/03/11 04:46:51;;;;;;;9.27;5.20;;;;;;;;;;8436186;28;20044;-86
2023/03/11 04:50:55;;;;;;;6.25;3.90;;;;;;;;;;8437297;28;20127;-82
2023/03/11 04:54:59;;;;;;;6.07;3.72;;;;;;;;;;8441442;28;20048;-82
2023/03/11 04:59:02;;;;;;;7.07;4.10;;;;;;;;;;8445277;28;20471;-82
2023/03/11 05:03:05;;;;;;;11.25;5.82;;;;;;;;;;8444728;28;20047;-87
2023/03/11 05:07:08;;;;;;;3.03;2.20;;;;;;;;;;8444342;28;20929;-92
2023/03/11 05:11:12;;;;;;;2.97;2.30;;;;;;;;;;8432249;28;20051;-82
2023/03/11 05:15:15;;;;;;;6.43;5.25;;;;;;;;;;8412052;28;20119;-83
2023/03/11 05:19:34;;;;;;;3.75;2.92;;;;;;;;;;8430985;28;20040;-89
2023/03/11 05:23:37;;;;;;;3.13;2.22;;;;;;;;;;8447713;28;20127;-82
2023/03/11 05:27:41;;;;;;;3.03;2.58;;;;;;;;;;8430993;28;20525;-82
2023/03/11 05:31:45;;;;;;;3.15;2.50;;;;;;;;;;8428892;28;20047;-83
2023/03/11 05:35:50;;;;;;;4.50;2.60;;;;;;;;;;8431117;28;20074;-82
2023/03/11 05:39:53;;;;;;;7.28;3.80;;;;;;;;;;8436153;28;20562;-80
2023/03/11 05:43:57;;;;;;;6.95;4.05;;;;;;;;;;8435879;28;20056;-80
2023/03/11 05:48:00;;;;;;;9.77;5.28;;;;;;;;;;8424039;28;20048;-80
2023/03/11 05:52:03;;;;;;;8.80;5.15;;;;;;;;;;8440247;28;20064;-82
2023/03/11 05:56:07;;;;;;;6.32;3.67;;;;;;;;;;8440375;28;20040;-80
2023/03/11 06:00:15;;;;;;;4.20;2.88;;;;;;;;;;8441438;28;20120;-82
2023/03/11 06:04:28;;;;;;;6.78;3.28;;;;;;;;;;8435763;28;20610;-82
2023/03/11 06:08:34;;;;;;;5.55;3.25;;;;;;;;;;8433628;28;21733;-82
2023/03/11 06:12:38;;;;;;;4.32;2.72;;;;;;;;;;8434620;28;20097;-82
2023/03/11 06:16:43;;;;;;;11.30;6.95;;;;;;;;;;8436205;28;20411;-84
2023/03/11 06:20:46;;;;;;;9.80;5.30;;;;;;;;;;8441029;28;20054;-81
2023/03/11 06:24:48;;;;;;;3.95;2.90;;;;;;;;;;8438949;28;20634;-80
2023/03/11 06:28:53;;;;;;;13.70;7.90;;;;;;;;;;8438071;28;20071;-88
2023/03/11 06:32:57;;;;;;;4.80;3.25;;;;;;;;;;8434838;28;20048;-82
2023/03/11 06:37:00;;;;;;;11.63;5.57;;;;;;;;;;8433251;28;20059;-81
2023/03/11 06:41:05;;;;;;;6.93;3.22;;;;;;;;;;8430998;28;20056;-92
2023/03/11 06:45:09;;;;;;;10.88;5.85;;;;;;;;;;8395869;28;20469;-81
2023/03/11 06:49:14;;;;;;;16.30;6.85;;;;;;;;;;8425919;28;20040;-83
2023/03/11 06:53:16;;;;;;;8.70;5.03;;;;;;;;;;8436182;28;20040;-82
2023/03/11 06:57:20;;;;;;;7.25;4.53;;;;;;;;;;8412622;28;20048;-81
2023/03/11 07:01:26;;;;;;;7.53;4.40;;;;;;;;;;8430254;28;20159;-83
2023/03/11 07:05:31;;;;;;;9.10;4.70;;;;;;;;;;8432297;28;20483;-82
2023/03/11 07:09:33;;;;;;;6.70;4.05;;;;;;;;;;8410878;28;20052;-82
2023/03/11 07:13:37;;;;;;;19.55;9.88;;;;;;;;;;8430753;28;20510;-83
2023/03/11 07:17:40;;;;;;;7.97;3.92;;;;;;;;;;8421418;28;20078;-81
2023/03/11 07:21:44;;;;;;;8.88;5.43;;;;;;;;;;8424586;28;20052;-90
2023/03/11 07:25:47;;;;;;;7.88;4.13;;;;;;;;;;8425993;28;20122;-85
2023/03/11 07:29:50;;;;;;;8.98;6.68;;;;;;;;;;8423524;28;20063;-86
2023/03/11 07:33:53;;;;;;;10.77;5.97;;;;;;;;;;8434440;28;20082;-82
2023/03/11 07:37:57;;;;;;;7.40;4.63;;;;;;;;;;8430761;28;20196;-88
2023/03/11 07:42:00;;;;;;;6.20;3.47;;;;;;;;;;8430211;28;20079;-83
2023/03/11 07:46:05;;;;;;;3.63;2.38;;;;;;;;;;8429003;28;20411;-84
2023/03/11 07:50:10;;;;;;;6.22;3.08;;;;;;;;;;8431222;28;20394;-85
2023/03/11 07:54:15;;;;;;;8.50;3.50;;;;;;;;;;8430456;28;20051;-83
2023/03/11 07:58:18;;;;;;;12.35;6.65;;;;;;;;;;8430965;28;20554;-82
2023/03/11 08:02:21;;;;;;;7.53;3.80;;;;;;;;;;8430317;28;20048;-88
2023/03/11 08:06:27;;;;;;;7.43;3.13;;;;;;;;;;8430470;28;20518;-81
2023/03/11 08:10:32;;;;;;;9.68;4.35;;;;;;;;;;8430407;28;20052;-87
2023/03/11 08:14:35;;;;;;;7.47;3.60;;;;;;;;;;8430640;28;20040;-89
2023/03/11 08:18:38;;;;;;;8.50;4.53;;;;;;;;;;8429634;28;20040;-86
2023/03/11 08:22:41;;;;;;;9.52;4.57;;;;;;;;;;8430335;28;20047;-80
2023/03/11 08:26:45;;;;;;;6.20;3.47;;;;;;;;;;8434606;28;20044;-85
2023/03/11 08:30:48;;;;;;;8.50;4.30;;;;;;;;;;8434852;28;20086;-88
2023/03/11 08:34:51;;;;;;;5.50;3.80;;;;;;;;;;8436335;28;20134;-82
2023/03/11 08:38:54;;;;;;;5.85;3.05;;;;;;;;;;8430430;28;20424;-83
2023/03/11 08:42:58;;;;;;;5.35;3.63;;;;;;;;;;8429010;28;20073;-82
2023/03/11 08:47:02;;;;;;;4.25;2.75;;;;;;;;;;8430484;28;20069;-82
2023/03/11 08:51:11;;;;;;;4.47;3.13;;;;;;;;;;8431053;28;20036;-85
2023/03/11 08:55:17;;;;;;;6.32;3.95;;;;;;;;;;8430642;28;20082;-89
2023/03/11 08:59:22;;;;;;;2.13;1.73;;;;;;;;;;8412886;28;20055;-82
2023/03/11 09:03:25;;;;;;;6.57;3.60;;;;;;;;;;8429900;28;20055;-85
2023/03/11 09:07:28;;;;;;;5.28;3.47;;;;;;;;;;8423093;28;20544;-85
2023/03/11 09:11:31;;;;;;;6.32;4.30;;;;;;;;;;8428018;28;20407;-84
2023/03/11 09:15:37;;;;;;;6.63;3.92;;;;;;;;;;8429455;28;20048;-84
2023/03/11 09:19:41;;;;;;;5.78;3.50;;;;;;;;;;8423162;28;20128;-86
2023/03/11 09:23:44;;;;;;;5.20;3.47;;;;;;;;;;8423405;28;20052;-90
2023/03/11 09:27:48;;;;;;;6.65;4.72;;;;;;;;;;8430698;28;20523;-84
2023/03/11 09:31:53;;;;;;;9.98;5.55;;;;;;;;;;8425962;28;20104;-84
2023/03/11 09:35:57;;;;;;;5.78;3.20;;;;;;;;;;8426234;28;20109;-85
2023/03/11 09:40:00;;;;;;;8.05;3.40;;;;;;;;;;8427059;28;20054;-89
2023/03/11 09:44:16;;;;;;;3.28;1.90;;;;;;;;;;8427645;28;20048;-84
2023/03/11 09:48:31;;;;;;;2.42;1.95;;;;;;;;;;8424664;28;20491;-86
2023/03/11 09:52:40;;;;;;;5.03;3.17;;;;;;;;;;8426976;28;20048;-86
2023/03/11 09:56:44;;;;;;;5.00;2.92;;;;;;;;;;8407805;28;20040;-81
2023/03/11 10:00:55;;;;;;;5.22;2.50;;;;;;;;;;8427227;28;20074;-87
2023/03/11 10:05:06;;;;;;;4.38;2.85;;;;;;;;;;8431921;28;20052;-83
2023/03/11 10:09:29;;;;;;;6.65;3.38;;;;;;;;;;8434248;28;20043;-85
2023/03/11 10:13:41;;;;;;;3.42;2.70;;;;;;;;;;8428571;28;20495;-87
2023/03/11 10:18:01;;;;;;;4.38;2.83;;;;;;;;;;8426221;28;20490;-84
2023/03/11 10:22:15;;;;;;;2.40;1.70;;;;;;;;;;8426466;28;20047;-82
2023/03/11 10:26:23;;;;;;;4.68;3.30;;;;;;;;;;8426669;28;20158;-90
2023/03/11 10:30:29;;;;;;;5.75;3.63;;;;;;;;;;8424340;28;20070;-83
2023/03/11 10:34:38;;;;;;;5.45;3.13;;;;;;;;;;8425159;28;21257;-82
2023/03/11 10:38:46;;;;;;;8.35;4.15;;;;;;;;;;8426964;28;20487;-88
2023/03/11 10:42:51;;;;;;;6.18;3.90;;;;;;;;;;8429838;28;20515;-85
2023/03/11 10:46:54;;;;;;;7.80;3.28;;;;;;;;;;8423347;28;20538;-82
2023/03/11 10:51:02;;;;;;;7.22;4.20;;;;;;;;;;8427106;28;20075;-85
2023/03/11 10:55:07;;;;;;;6.05;3.28;;;;;;;;;;8423380;28;20041;-82
2023/03/11 10:59:24;;;;;;;11.38;4.18;;;;;;;;;;8398456;28;20395;-88
2023/03/11 11:03:27;;;;;;;6.85;2.95;;;;;;;;;;8426118;28;20524;-85
2023/03/11 11:07:34;;;;;;;6.13;3.30;;;;;;;;;;8425187;28;20048;-91
2023/03/11 11:11:41;;;;;;;7.05;3.97;;;;;;;;;;8420035;28;20475;-82
2023/03/11 11:15:54;;;;;;;7.47;4.45;;;;;;;;;;8437696;28;20048;-85
2023/03/11 11:19:59;;;;;;;5.50;3.33;;;;;;;;;;8422903;28;20055;-81
2023/03/11 11:24:18;;;;;;;5.80;3.67;;;;;;;;;;8426207;28;20130;-80
2023/03/11 11:28:23;;;;;;;7.05;3.83;;;;;;;;;;8424508;28;20125;-94
2023/03/11 11:32:28;;;;;;;6.68;2.75;;;;;;;;;;8426176;28;20052;-81
2023/03/11 11:36:37;;;;;;;7.22;2.80;;;;;;;;;;8424335;28;20414;-84
2023/03/11 11:40:40;;;;;;;10.00;6.07;;;;;;;;;;8439934;28;20048;-86
2023/03/11 11:44:49;;;;;;;13.27;5.82;;;;;;;;;;8436651;28;20083;-85
2023/03/11 11:49:03;;;;;;;10.55;5.38;;;;;;;;;;8439183;28;20051;-87
2023/03/11 11:53:25;;;;;;;6.10;3.80;;;;;;;;;;8427289;28;20533;-89
2023/03/11 11:57:32;;;;;;;6.95;3.58;;;;;;;;;;8433012;28;20047;-94
2023/03/11 12:01:47;;;;;;;13.82;5.72;;;;;;;;;;8433803;28;20079;-81
2023/03/11 12:06:00;;;;;;;8.88;4.78;;;;;;;;;;8415712;28;20127;-85
2023/03/11 12:10:24;;;;;;;4.55;2.25;;;;;;;;;;8423440;28;20040;-84
2023/03/11 12:14:37;;;;;;;4.95;3.30;;;;;;;;;;8420852;28;20082;-86
2023/03/11 12:18:48;;;;;;;3.95;2.30;;;;;;;;;;8426438;28;20044;-88
2023/03/11 12:23:18;;;;;;;5.78;3.47;;;;;;;;;;8435042;28;20044;-84
2023/03/11 12:27:34;;;;;;;5.93;3.55;;;;;;;;;;8436415;28;20059;-82
2023/03/11 12:31:41;;;;;;;8.00;4.32;;;;;;;;;;8430548;28;20044;-82
2023/03/11 12:35:55;;;;;;;11.00;6.05;;;;;;;;;;8420261;28;20066;-89
2023/03/11 12:40:38;;;;;;;11.10;6.90;;;;;;;;;;8427473;28;20039;-82
2023/03/11 12:44:42;;;;;;;12.00;6.05;;;;;;;;;;8425956;28;20406;-84
2023/03/11 12:48:48;;;;;;;8.93;4.75;;;;;;;;;;8417432;28;20480;-91
2023/03/11 12:52:55;;;;;;;10.63;6.05;;;;;;;;;;8420459;28;20127;-84
2023/03/11 12:57:01;;;;;;;17.13;8.55;;;;;;;;;;8428087;28;20058;-85
2023/03/11 13:01:30;;;;;;;9.85;6.03;;;;;;;;;;8427911;28;20496;-85
2023/03/11 13:05:56;;;;;;;10.85;5.88;;;;;;;;;;8427723;28;20346;-86
2023/03/11 13:10:20;;;;;;;16.10;7.95;;;;;;;;;;8420132;28;20545;-86
2023/03/11 13:14:33;;;;;;;12.80;6.72;;;;;;;;;;8415536;28;20039;-87
2023/03/11 13:18:36;;;;;;;;;;;;;;;;;;8427313;28;20067;-85
2023/03/11 13:23:20;;;;;;;10.65;6.22;;;;;;;;;;8428361;28;19920;-85
2023/03/11 13:27:42;;;;;;;6.00;3.83;;;;;;;;;;8421665;28;20062;-93
2023/03/11 13:32:01;;;;;;;6.40;3.90;;;;;;;;;;8427087;28;20047;-90
2023/03/11 13:36:15;;;;;;;8.63;4.70;;;;;;;;;;8408467;28;20165;-92
2023/03/11 13:40:31;;;;;;;9.13;5.93;;;;;;;;;;8423577;28;20052;-82
2023/03/11 13:44:40;;;;;;;7.55;5.00;;;;;;;;;;8424180;28;20398;-90
2023/03/11 13:48:47;;;;;;;15.45;7.18;;;;;;;;;;8429657;28;20555;-84
2023/03/11 13:52:53;;;;;;;9.63;4.65;;;;;;;;;;8425104;28;20101;-88
2023/03/11 13:56:59;;;;;;;6.53;4.45;;;;;;;;;;8426445;28;20056;-92
2023/03/11 14:01:03;;;;;;;10.45;5.65;;;;;;;;;;8426686;28;20086;-88
2023/03/11 14:05:13;;;;;;;11.35;5.47;;;;;;;;;;8421860;28;20048;-86
2023/03/11 14:09:29;;;;;;;13.55;7.45;;;;;;;;;;8422177;28;20044;-87
2023/03/11 14:13:38;;;;;;;13.07;6.68;;;;;;;;;;8422394;28;20036;-89
2023/03/11 14:17:48;;;;;;;8.75;4.68;;;;;;;;;;8424437;28;20389;-88
2023/03/11 14:21:54;;;;;;;13.30;8.50;;;;;;;;;;8393204;28;20099;-86
2023/03/11 14:26:06;;;;;;;10.50;5.95;;;;;;;;;;8423124;28;20573;-85
2023/03/11 14:30:21;;;;;;;10.95;7.35;;;;;;;;;;8426522;28;20074;-87
2023/03/11 14:34:30;;;;;;;11.80;6.25;;;;;;;;;;8420660;28;20049;-88
2023/03/11 14:38:34;;;;;;;8.25;5.07;;;;;;;;;;8413320;28;20124;-88
2023/03/11 14:42:52;;;;;;;8.10;4.38;;;;;;;;;;8424489;28;20096;-82
2023/03/11 14:47:32;;;;;;;5.72;3.88;;;;;;;;;;8426253;28;20032;-84
2023/03/11 14:51:43;;;;;;;8.55;4.57;;;;;;;;;;8426195;28;20036;-92
2023/03/11 14:55:52;;;;;;;10.02;4.85;;;;;;;;;;8426877;28;20044;-86
2023/03/11 14:59:57;;;;;;;12.40;6.63;;;;;;;;;;8426727;28;20064;-89
2023/03/11 15:04:06;;;;;;;8.63;4.85;;;;;;;;;;8422652;28;20399;-82
2023/03/11 15:08:11;;;;;;;9.63;6.03;;;;;;;;;;8414418;28;20044;-81
2023/03/11 15:12:33;;;;;;;7.82;4.72;;;;;;;;;;8423509;28;20046;-82
2023/03/11 15:16:38;;;;;;;2.58;2.35;;;;;;;;;;8414857;28;20094;-84
2023/03/11 15:20:42;;;;;;;11.73;6.50;;;;;;;;;;8413157;28;20047;-80
2023/03/11 15:24:51;;;;;;;9.57;5.07;;;;;;;;;;8413971;28;20044;-83
2023/03/11 15:28:56;;;;;;;13.48;4.97;;;;;;;;;;8425219;28;20128;-80
2023/03/11 15:33:00;;;;;;;9.18;4.85;;;;;;;;;;8425433;28;20451;-82
2023/03/11 15:37:19;;;;;;;9.63;4.22;;;;;;;;;;8425540;28;20047;-81
2023/03/11 15:41:24;;;;;;;14.75;7.30;;;;;;;;;;8428043;28;20044;-83
2023/03/11 15:45:28;;;;;;;10.68;6.35;;;;;;;;;;8429290;28;20131;-88
2023/03/11 15:49:32;;;;;;;12.45;6.72;;;;;;;;;;8429316;28;20044;-89
2023/03/11 15:53:36;;;;;;;5.75;2.80;;;;;;;;;;8429336;28;20073;-84
2023/03/11 15:57:41;;;;;;;5.45;2.70;;;;;;;;;;8435399;28;20048;-89
2023/03/11 16:01:45;;;;;;;16.05;7.95;;;;;;;;;;8436633;28;20449;-80
2023/03/11 16:05:49;;;;;;;11.07;5.90;;;;;;;;;;8435177;28;20050;-81
2023/03/11 16:09:52;;;;;;;6.82;4.50;;;;;;;;;;8435633;28;20097;-83
2023/03/11 16:13:57;;;;;;;13.95;7.13;;;;;;;;;;8431369;28;20044;-86
2023/03/11 16:18:02;;;;;;;9.32;5.43;;;;;;;;;;8440434;28;20040;-82
2023/03/11 16:22:05;;;;;;;11.50;5.97;;;;;;;;;;8431408;28;20047;-86
2023/03/11 16:26:12;;;;;;;5.25;2.75;;;;;;;;;;8403923;28;20066;-81
2023/03/11 16:30:21;;;;;;;15.82;7.95;;;;;;;;;;8428569;28;20048;-84
2023/03/11 16:34:24;;;;;;;13.50;7.68;;;;;;;;;;8429012;28;20162;-85
2023/03/11 16:38:28;;;;;;;16.48;6.05;;;;;;;;;;8424690;28;20143;-83
2023/03/11 16:42:34;;;;;;;10.30;4.70;;;;;;;;;;8430403;28;20461;-86
2023/03/11 16:46:39;;;;;;;18.10;7.82;;;;;;;;;;8410296;28;20051;-87
2023/03/11 16:50:42;;;;;;;8.68;4.65;;;;;;;;;;8424053;28;20123;-88
2023/03/11 16:54:46;;;;;;;13.18;5.95;;;;;;;;;;8423875;28;20044;-83
2023/03/11 16:58:50;;;;;;;5.50;3.70;;;;;;;;;;8424562;28;20044;-83
2023/03/11 17:02:54;;;;;;;6.15;3.70;;;;;;;;;;8426067;28;20130;-82
2023/03/11 17:06:59;;;;;;;7.32;3.25;;;;;;;;;;8422122;28;20044;-82
2023/03/11 17:11:04;;;;;;;7.15;3.42;;;;;;;;;;8417768;28;20061;-86
2023/03/11 17:15:09;;;;;;;12.43;5.65;;;;;;;;;;8434213;28;20044;-80
2023/03/11 17:19:15;;;;;;;8.93;4.53;;;;;;;;;;8434459;28;20075;-82
2023/03/11 17:23:20;;;;;;;13.50;5.80;;;;;;;;;;8430571;28;20575;-86
2023/03/11 17:27:30;;;;;;;16.17;6.03;;;;;;;;;;8428435;28;20059;-79
2023/03/11 17:31:35;;;;;;;15.63;7.03;;;;;;;;;;8428950;28;20048;-82
2023/03/11 17:35:41;;;;;;;13.50;6.20;;;;;;;;;;8432170;28;20064;-83
2023/03/11 17:39:50;;;;;;;7.03;2.75;;;;;;;;;;8431329;28;20070;-85
2023/03/11 17:43:57;;;;;;;9.82;5.05;;;;;;;;;;8417392;28;20073;-81
2023/03/11 17:48:03;;;;;;;13.88;5.93;;;;;;;;;;8423998;28;20051;-87
2023/03/11 17:52:08;;;;;;;8.73;5.10;;;;;;;;;;8434113;28;20047;-80
2023/03/11 17:56:14;;;;;;;5.80;3.13;;;;;;;;;;8435694;28;20047;-84
2023/03/11 18:00:20;;;;;;;7.35;3.53;;;;;;;;;;8433229;28;20086;-81
2023/03/11 18:04:25;;;;;;;10.48;4.55;;;;;;;;;;8436464;28;20130;-84
2023/03/11 18:08:34;;;;;;;6.80;3.97;;;;;;;;;;8434390;28;20082;-81
2023/03/11 18:12:39;;;;;;;7.30;4.25;;;;;;;;;;8435385;28;20052;-85
2023/03/11 18:16:43;;;;;;;7.40;4.05;;;;;;;;;;8418864;28;20107;-80
2023/03/11 18:20:47;;;;;;;6.20;2.97;;;;;;;;;;8436418;28;20151;-81
2023/03/11 18:24:53;;;;;;;14.55;5.38;;;;;;;;;;8433359;28;20133;-87
2023/03/11 18:28:59;;;;;;;10.48;4.90;;;;;;;;;;8434440;28;20063;-81
2023/03/11 18:33:03;;;;;;;11.88;6.00;;;;;;;;;;8435926;28;20131;-81
2023/03/11 18:37:08;;;;;;;4.20;3.78;;;;;;;;;;8439737;28;20055;-81
2023/03/11 18:41:14;;;;;;;8.10;4.30;;;;;;;;;;8432153;28;20101;-85
2023/03/11 18:45:19;;;;;;;10.88;5.18;;;;;;;;;;8430817;28;20547;-87
2023/03/11 18:49:27;;;;;;;9.00;4.88;;;;;;;;;;8434288;28;20047;-80
2023/03/11 18:53:40;;;;;;;7.13;4.57;;;;;;;;;;8431106;28;20032;-86
2023/03/11 18:57:48;;;;;;;3.05;2.35;;;;;;;;;;8421680;28;20066;-80
2023/03/11 19:01:52;;;;;;;8.63;3.35;;;;;;;;;;8417751;28;20553;-83
2023/03/11 19:05:55;;;;;;;7.38;2.78;;;;;;;;;;8435374;28;20044;-80
2023/03/11 19:10:00;;;;;;;9.35;4.18;;;;;;;;;;8437382;28;20047;-79
2023/03/11 19:14:06;;;;;;;8.63;3.83;;;;;;;;;;8439757;28;20055;-90
2023/03/11 19:18:11;;;;;;;8.60;4.18;;;;;;;;;;8417036;28;20089;-86
2023/03/11 19:22:16;;;;;;;7.05;4.22;;;;;;;;;;8435217;28;20051;-79
2023/03/11 19:26:27;;;;;;;14.30;6.38;;;;;;;;;;8431202;28;20492;-78
2023/03/11 19:30:33;;;;;;;16.98;6.20;;;;;;;;;;8426733;28;20079;-78
2023/03/11 19:34:38;;;;;;;10.27;5.03;;;;;;;;;;8436894;28;20051;-83
2023/03/11 19:38:43;;;;;;;18.48;7.50;;;;;;;;;;8438382;28;20044;-85
2023/03/11 19:42:47;;;;;;;15.77;6.90;;;;;;;;;;8436163;28;20123;-80
2023/03/11 19:46:53;;;;;;;25.80;9.68;;;;;;;;;;8436183;28;20507;-85
2023/03/11 19:50:58;;;;;;;12.82;6.05;;;;;;;;;;8418400;28;20048;-82
2023/03/11 19:55:02;;;;;;;22.52;7.72;;;;;;;;;;8435562;28;20090;-83
2023/03/11 19:59:07;;;;;;;18.77;6.57;;;;;;;;;;8438266;28;20097;-78
2023/03/11 20:03:14;;;;;;;16.10;5.72;;;;;;;;;;8420279;28;20571;-80
2023/03/11 20:07:20;;;;;;;15.60;4.07;;;;;;;;;;8440567;28;20090;-77
2023/03/11 20:11:25;;;;;;;20.80;7.13;;;;;;;;;;8445470;28;20049;-80
2023/03/11 20:15:34;;;;;;;20.52;7.18;;;;;;;;;;8455417;28;20040;-81
2023/03/11 20:19:41;;;;;;;20.95;7.72;;;;;;;;;;8451602;28;20115;-81
2023/03/11 20:23:48;;;;;;;5.80;3.53;;;;;;;;;;8438258;28;20092;-79
2023/03/11 20:27:55;;;;;;;9.57;5.40;;;;;;;;;;8424838;28;20062;-82
2023/03/11 20:32:14;;;;;;;20.77;5.95;;;;;;;;;;8434317;28;20056;-85
2023/03/11 20:36:22;;;;;;;7.63;3.83;;;;;;;;;;8445504;28;20046;-80
2023/03/11 20:40:32;;;;;;;13.30;6.00;;;;;;;;;;8419001;28;20044;-81
2023/03/11 20:44:37;;;;;;;9.02;4.10;;;;;;;;;;8401564;28;20044;-81
2023/03/11 20:48:41;;;;;;;16.67;7.35;;;;;;;;;;8449396;28;20130;-80
2023/03/11 20:52:49;;;;;;;14.65;6.18;;;;;;;;;;8428265;28;20563;-81
2023/03/11 20:56:56;;;;;;;5.80;3.35;;;;;;;;;;8446620;28;20219;-80
2023/03/11 21:01:00;;;;;;;16.33;6.70;;;;;;;;;;8444803;28;20049;-78
2023/03/11 21:05:05;;;;;;;12.75;5.00;;;;;;;;;;8443522;28;20065;-79
2023/03/11 21:09:15;;;;;;;14.27;6.22;;;;;;;;;;8445044;28;20044;-79
2023/03/11 21:13:19;;;;;;;15.70;6.28;;;;;;;;;;8433469;28;20553;-81
2023/03/11 21:17:23;;;;;;;16.55;7.20;;;;;;;;;;8449351;28;20380;-87
2023/03/11 21:21:27;;;;;;;18.77;7.97;;;;;;;;;;8448252;28;20045;-81
2023/03/11 21:25:32;;;;;;;16.40;7.40;;;;;;;;;;8445015;28;20496;-81
2023/03/11 21:29:36;;;;;;;14.48;6.43;;;;;;;;;;8443457;28;20108;-80
2023/03/11 21:33:40;;;;;;;13.38;7.05;;;;;;;;;;8446363;28;20093;-80
2023/03/11 21:41:55;;;;;;;16.52;6.38;;;;;;;;;;8400634;28;20127;-81
2023/03/11 21:46:07;;;;;;;13.85;5.93;;;;;;;;;;8446336;28;20043;-83
2023/03/11 21:50:12;;;;;;;8.63;4.35;;;;;;;;;;8445890;28;20044;-87
2023/03/11 21:54:15;;;;;;;15.07;5.25;;;;;;;;;;8444514;28;20070;-79
2023/03/11 21:58:21;;;;;;;13.07;5.47;;;;;;;;;;8445503;28;20048;-92
2023/03/11 22:02:24;;;;;;;15.63;6.15;;;;;;;;;;8444313;28;20044;-93
2023/03/11 22:06:29;;;;;;;14.40;6.20;;;;;;;;;;8443576;28;20040;-85
2023/03/11 22:10:33;;;;;;;10.63;5.50;;;;;;;;;;8442920;28;20105;-89
2023/03/11 22:14:38;;;;;;;13.80;6.32;;;;;;;;;;8442899;28;20063;-79
2023/03/11 22:18:41;;;;;;;13.23;5.95;;;;;;;;;;8443808;28;20036;-82
2023/03/11 22:22:45;;;;;;;12.05;5.72;;;;;;;;;;8440114;28;20119;-93
2023/03/11 22:26:48;;;;;;;7.78;4.20;;;;;;;;;;8439446;28;20052;-88
2023/03/11 22:30:53;;;;;;;13.95;5.72;;;;;;;;;;8438629;28;20044;-80
2023/03/11 22:34:57;;;;;;;13.38;7.03;;;;;;;;;;8437907;28;20044;-86
2023/03/11 22:39:03;;;;;;;9.68;5.60;;;;;;;;;;8417819;28;20093;-84
2023/03/11 22:43:06;;;;;;;13.40;4.47;;;;;;;;;;8434679;28;20044;-83
2023/03/11 22:47:11;;;;;;;11.13;5.63;;;;;;;;;;8435872;28;20059;-88
2023/03/11 22:51:15;;;;;;;15.07;5.82;;;;;;;;;;8422171;28;20051;-81
2023/03/11 22:55:18;;;;;;;13.63;6.20;;;;;;;;;;8440824;28;20380;-88
2023/03/11 22:59:21;;;;;;;14.27;7.55;;;;;;;;;;8434425;28;20048;-89
2023/03/11 23:03:26;;;;;;;14.63;6.10;;;;;;;;;;8433302;28;20380;-90
2023/03/11 23:07:30;;;;;;;15.15;7.45;;;;;;;;;;8421920;28;20055;-80
2023/03/11 23:11:33;;;;;;;9.43;5.40;;;;;;;;;;8432796;28;20044;-86
2023/03/11 23:15:36;;;;;;;14.52;8.35;;;;;;;;;;8433638;28;20048;-87
2023/03/11 23:19:41;;;;;;;18.58;7.60;;;;;;;;;;8432931;28;20047;-84
2023/03/11 23:23:44;;;;;;;16.75;7.90;;;;;;;;;;8415577;28;20495;-90
2023/03/11 23:27:47;;;;;;;20.02;7.75;;;;;;;;;;8433747;28;20518;-85
2023/03/11 23:31:50;;;;;;;8.65;4.45;;;;;;;;;;8419705;28;20044;-91
2023/03/11 23:35:55;;;;;;;23.10;8.15;;;;;;;;;;8433218;28;20427;-86
2023/03/11 23:39:58;;;;;;;20.33;8.88;;;;;;;;;;8422546;28;20396;-83
2023/03/11 23:44:02;;;;;;;14.80;7.38;;;;;;;;;;8427670;28;20153;-83
2023/03/11 23:48:05;;;;;;;16.20;8.07;;;;;;;;;;8428384;28;20048;-85
2023/03/11 23:52:10;;;;;;;20.42;9.65;;;;;;;;;;8432122;28;20044;-93
2023/03/11 23:56:15;;;;;;;21.00;10.52;;;;;;;;;;8414848;28;20051;-87
